createdAt,value
2023-04-28T00:04:38.456Z,4.43
2023-04-28T00:09:31.155Z,6.63
2023-04-28T00:14:25.063Z,5.30
2023-04-28T00:19:17.574Z,4.87
2023-04-28T00:24:10.173Z,4.77
2023-04-28T00:29:02.731Z,4.73
2023-04-28T00:33:56.631Z,5.20
2023-04-28T00:38:49.173Z,6.03
2023-04-28T00:43:45.598Z,5.70
2023-04-28T00:48:39.420Z,6.83
2023-04-28T00:53:33.419Z,8.33
2023-04-28T00:58:26.178Z,6.00
2023-04-28T01:03:18.955Z,5.30
2023-04-28T01:08:11.724Z,4.80
2023-04-28T01:13:05.926Z,7.90
2023-04-28T01:17:58.686Z,6.20
2023-04-28T01:22:51.429Z,5.50
2023-04-28T01:27:46.429Z,5.40
2023-04-28T01:32:39.381Z,7.93
2023-04-28T01:37:31.971Z,5.30
2023-04-28T01:42:24.602Z,5.73
2023-04-28T01:47:18.513Z,4.43
2023-04-28T01:52:11.160Z,6.50
2023-04-28T01:57:03.936Z,7.90
2023-04-28T02:01:57.928Z,5.10
2023-04-28T02:06:52.159Z,7.77
2023-04-28T02:11:44.723Z,7.90
2023-04-28T02:16:37.291Z,5.80
2023-04-28T02:21:30.937Z,6.33
2023-04-28T02:26:25.847Z,6.20
2023-04-28T02:31:18.581Z,6.63
2023-04-28T02:36:12.174Z,6.70
2023-04-28T02:41:06.490Z,6.60
2023-04-28T02:46:00.748Z,6.57
2023-04-28T02:50:53.758Z,6.67
2023-04-28T02:55:46.571Z,6.30
2023-04-28T03:00:39.258Z,7.93
2023-04-28T03:05:33.260Z,5.27
2023-04-28T03:10:26.482Z,11.50
2023-04-28T03:15:19.065Z,5.40
2023-04-28T03:20:12.880Z,6.53
2023-04-28T03:25:07.561Z,7.47
2023-04-28T03:30:06.184Z,7.50
2023-04-28T03:34:58.912Z,7.83
2023-04-28T03:39:51.479Z,10.40
2023-04-28T03:44:45.494Z,5.47
2023-04-28T03:49:38.889Z,5.80
2023-04-28T03:54:32.149Z,7.20
2023-04-28T03:59:26.866Z,7.10
2023-04-28T04:04:21.328Z,6.03
2023-04-28T04:09:14.382Z,6.30
2023-04-28T04:14:07.400Z,5.47
2023-04-28T04:19:00.225Z,7.97
2023-04-28T04:24:03.330Z,8.80
2023-04-28T04:28:56.020Z,7.77
2023-04-28T04:33:48.702Z,6.70
2023-04-28T04:38:43.284Z,7.47
2023-04-28T04:43:42.885Z,7.80
2023-04-28T04:48:35.546Z,6.27
2023-04-28T04:53:28.223Z,8.77
2023-04-28T04:58:22.031Z,7.53
2023-04-28T05:03:48.482Z,9.67
2023-04-28T05:08:41.668Z,8.30
2023-04-28T05:13:34.450Z,10.20
2023-04-28T05:18:29.186Z,7.40
2023-04-28T05:23:23.488Z,9.87
2023-04-28T05:28:17.473Z,7.40
2023-04-28T05:33:11.710Z,5.90
2023-04-28T05:38:04.784Z,7.60
2023-04-28T05:42:58.845Z,7.47
2023-04-28T05:47:52.721Z,7.63
2023-04-28T05:52:46.398Z,7.03
2023-04-28T05:57:51.904Z,9.30
2023-04-28T06:02:47.733Z,9.50
2023-04-28T06:07:40.818Z,9.77
2023-04-28T06:12:34.453Z,11.13
2023-04-28T06:17:27.200Z,11.70
2023-04-28T06:22:21.514Z,13.47
2023-04-28T06:27:14.094Z,12.20
2023-04-28T06:32:07.129Z,10.53
2023-04-28T06:36:59.944Z,7.70
2023-04-28T06:41:54.411Z,7.53
2023-04-28T06:46:48.805Z,7.53
2023-04-28T06:51:41.446Z,5.40
2023-04-28T06:56:34.115Z,6.60
2023-04-28T07:01:28.110Z,6.33
2023-04-28T07:06:21.190Z,8.27
2023-04-28T07:11:13.785Z,6.53
2023-04-28T07:16:06.516Z,5.77
2023-04-28T07:21:00.555Z,6.20
2023-04-28T07:25:53.429Z,6.83
2023-04-28T07:30:46.026Z,8.30
2023-04-28T07:35:38.671Z,8.60
2023-04-28T07:40:32.842Z,9.13
2023-04-28T07:45:26.186Z,9.63
2023-04-28T07:50:19.008Z,7.90
2023-04-28T07:55:11.724Z,7.93
2023-04-28T08:00:06.507Z,7.03
2023-04-28T08:05:05.049Z,8.20
2023-04-28T08:09:57.863Z,7.00
2023-04-28T08:14:50.576Z,6.40
2023-04-28T08:19:46.237Z,9.03
2023-04-28T08:24:38.922Z,6.60
2023-04-28T08:29:31.791Z,6.70
2023-04-28T08:34:24.455Z,6.30
2023-04-28T08:39:19.633Z,6.30
2023-04-28T08:44:12.447Z,4.97
2023-04-28T08:49:05.443Z,5.90
2023-04-28T08:54:18.872Z,5.83
2023-04-28T08:59:13.596Z,5.63
2023-04-28T09:04:06.468Z,6.90
2023-04-28T09:09:18.859Z,6.00
2023-04-28T09:14:14.646Z,6.40
2023-04-28T09:19:07.481Z,5.40
2023-04-28T09:24:00.181Z,7.00
2023-04-28T09:28:57.226Z,5.50
2023-04-28T09:33:59.060Z,4.60
2023-04-28T09:38:51.621Z,4.57
2023-04-28T09:43:45.367Z,3.63
2023-04-28T09:48:38.894Z,3.80
2023-04-28T09:53:33.382Z,4.47
2023-04-28T09:58:26.864Z,4.03
2023-04-28T10:03:23.331Z,3.60
2023-04-28T10:08:17.812Z,4.03
2023-04-28T10:13:12.237Z,4.40
2023-04-28T10:18:05.004Z,4.07
2023-04-28T10:23:00.523Z,3.60
2023-04-28T10:27:53.827Z,3.40
2023-04-28T10:32:48.313Z,4.60
2023-04-28T10:37:59.576Z,4.20
2023-04-28T10:42:52.923Z,3.73
2023-04-28T10:48:06.273Z,3.07
2023-04-28T10:53:00.486Z,3.10
2023-04-28T10:58:07.939Z,3.60
2023-04-28T11:03:02.146Z,2.30
2023-04-28T11:08:16.940Z,2.07
2023-04-28T11:13:28.044Z,2.03
2023-04-28T11:18:23.972Z,2.13
2023-04-28T11:23:16.737Z,2.10
2023-04-28T11:28:09.371Z,2.17
2023-04-28T11:33:02.155Z,2.07
2023-04-28T11:38:04.926Z,2.80
2023-04-28T11:43:00.121Z,2.37
2023-04-28T11:47:57.455Z,5.07
2023-04-28T11:58:22.259Z,2.30
2023-04-28T11:59:21.467Z,3.83
2023-04-28T12:03:15.002Z,2.10
2023-04-28T12:08:08.253Z,2.20
2023-04-28T12:13:16.038Z,1.90
2023-04-28T12:18:12.557Z,1.80
2023-04-28T12:23:05.423Z,2.13
2023-04-28T12:28:02.636Z,2.10
2023-04-28T12:32:56.217Z,3.13
2023-04-28T12:37:50.473Z,2.13
2023-04-28T12:42:43.181Z,2.30
2023-04-28T12:47:35.871Z,2.30
2023-04-28T12:52:28.539Z,2.80
2023-04-28T12:57:22.624Z,2.33
2023-04-28T13:02:15.908Z,3.00
2023-04-28T13:07:08.625Z,3.70
2023-04-28T13:12:03.024Z,6.30
2023-04-28T13:16:57.632Z,3.60
2023-04-28T13:21:50.218Z,2.77
2023-04-28T13:26:44.164Z,2.57
2023-04-28T13:31:36.924Z,2.43
2023-04-28T13:36:30.992Z,2.40
2023-04-28T13:41:23.649Z,2.60
2023-04-28T13:46:16.603Z,4.13
2023-04-28T13:51:09.538Z,4.53
2023-04-28T13:56:03.829Z,2.60
2023-04-28T14:00:57.243Z,4.20
2023-04-28T14:05:50.195Z,4.67
2023-04-28T14:10:42.771Z,4.20
2023-04-28T14:15:38.557Z,4.00
2023-04-28T14:20:32.978Z,5.23
2023-04-28T14:25:25.564Z,4.20
2023-04-28T14:30:18.745Z,4.67
2023-04-28T14:35:13.913Z,4.47
2023-04-28T14:40:07.316Z,4.10
2023-04-28T14:45:00.204Z,3.90
2023-04-28T14:49:54.246Z,3.50
2023-04-28T14:54:48.356Z,3.70
2023-04-28T14:59:41.640Z,4.57
2023-04-28T15:04:34.783Z,4.87
2023-04-28T15:09:27.813Z,4.20
2023-04-28T15:14:21.811Z,6.00
2023-04-28T15:19:14.542Z,5.43
2023-04-28T15:24:07.459Z,4.43
2023-04-28T15:29:00.706Z,5.13
2023-04-28T15:33:54.914Z,5.30
2023-04-28T15:38:48.024Z,5.70
2023-04-28T15:43:40.555Z,5.37
2023-04-28T15:48:33.207Z,5.90
2023-04-28T15:53:27.067Z,7.00
2023-04-28T15:58:21.073Z,8.50
2023-04-28T16:03:13.786Z,12.10
2023-04-28T16:08:06.797Z,5.83
2023-04-28T16:13:01.141Z,6.53
2023-04-28T16:17:53.847Z,6.47
2023-04-28T16:22:46.816Z,9.30
2023-04-28T16:27:39.863Z,8.27
2023-04-28T16:32:36.270Z,5.63
2023-04-28T16:37:29.149Z,5.80
2023-04-28T16:42:22.526Z,6.03
2023-04-28T16:47:15.458Z,5.20
2023-04-28T16:52:09.595Z,5.63
2023-04-28T16:57:04.055Z,4.30
2023-04-28T17:01:56.797Z,4.83
2023-04-28T17:06:49.479Z,4.83
2023-04-28T17:11:43.482Z,6.47
2023-04-28T17:16:36.531Z,5.33
2023-04-28T17:21:29.512Z,4.27
2023-04-28T17:26:22.140Z,5.60
2023-04-28T17:31:16.520Z,5.10
2023-04-28T17:36:09.188Z,8.87
2023-04-28T17:41:01.965Z,8.40
2023-04-28T17:45:57.569Z,8.77
2023-04-28T17:50:52.483Z,6.20
2023-04-28T17:55:45.092Z,5.37
2023-04-28T18:00:37.875Z,6.23
2023-04-28T18:05:31.141Z,4.90
2023-04-28T18:10:28.036Z,4.77
2023-04-28T18:15:20.660Z,4.47
2023-04-28T18:20:13.655Z,6.80
2023-04-28T18:25:06.410Z,5.50
2023-04-28T18:30:00.618Z,6.60
2023-04-28T18:34:53.233Z,6.10
2023-04-28T18:39:45.870Z,5.90
2023-04-28T18:44:38.593Z,10.97
2023-04-28T18:49:32.638Z,9.07
2023-04-28T18:54:26.737Z,11.30
2023-04-28T18:59:19.370Z,11.47
2023-04-28T19:04:12.253Z,11.60
2023-04-28T19:09:07.156Z,15.47
2023-04-28T19:14:00.155Z,16.40
2023-04-28T19:18:52.768Z,17.60
2023-04-28T19:23:45.464Z,18.50
2023-04-28T19:28:39.638Z,14.60
2023-04-28T19:33:32.783Z,17.60
2023-04-28T19:38:25.335Z,16.87
2023-04-28T19:43:18.106Z,13.80
2023-04-28T19:48:12.410Z,13.70
2023-04-28T19:53:05.281Z,13.80
2023-04-28T19:57:58.412Z,11.60
2023-04-28T20:02:51.423Z,12.77
2023-04-28T20:07:46.149Z,11.97
2023-04-28T20:12:38.926Z,20.03
2023-04-28T20:17:31.715Z,15.43
2023-04-28T20:22:24.311Z,15.43
2023-04-28T20:27:18.190Z,13.23
2023-04-28T20:32:10.764Z,16.20
2023-04-28T20:37:06.234Z,18.90
2023-04-28T20:41:59.616Z,18.73
2023-04-28T20:46:53.663Z,19.70
2023-04-28T20:51:48.217Z,20.60
2023-04-28T20:56:43.223Z,25.67
2023-04-28T21:01:35.900Z,29.30
2023-04-28T21:06:29.838Z,41.43
2023-04-28T21:11:22.445Z,45.90
2023-04-28T21:16:19.432Z,56.93
2023-04-28T21:21:13.363Z,68.40
2023-04-28T21:26:07.787Z,54.73
2023-04-28T21:31:00.539Z,67.27
2023-04-28T21:35:53.099Z,79.10
2023-04-28T21:40:45.620Z,107.67
2023-04-28T21:45:39.566Z,93.13
2023-04-28T21:50:32.059Z,77.93
2023-04-28T21:55:24.676Z,59.33
2023-04-28T22:00:17.458Z,50.77
2023-04-28T22:05:11.421Z,46.37
2023-04-28T22:10:04.025Z,55.67
2023-04-28T22:14:56.889Z,56.17
2023-04-28T22:19:49.751Z,65.33
2023-04-28T22:24:43.805Z,63.37
2023-04-28T22:29:36.578Z,54.37
2023-04-28T22:34:29.163Z,50.03
2023-04-28T22:39:21.685Z,44.63
2023-04-28T22:44:15.525Z,42.07
2023-04-28T22:49:08.124Z,47.17
2023-04-28T22:54:01.438Z,47.20
2023-04-28T22:58:54.035Z,40.60
2023-04-28T23:03:50.709Z,41.80
2023-04-28T23:08:43.384Z,38.43
2023-04-28T23:13:35.938Z,31.00
2023-04-28T23:18:28.678Z,39.27
2023-04-28T23:23:22.659Z,37.47
2023-04-28T23:28:15.165Z,34.80
2023-04-28T23:33:07.882Z,30.00
2023-04-28T23:38:00.391Z,32.53
2023-04-28T23:42:54.491Z,30.90
2023-04-28T23:47:47.233Z,19.40
2023-04-28T23:52:40.413Z,22.60
2023-04-28T23:57:33.111Z,31.80
